sensor_id;sensor_type;location;lat;lon;timestamp;pressure;altitude;pressure_sealevel;temperature;humidity
39177;BME280;24904;52.208;21.192;2023-07-02T00:03:12;99316.40;;;17.88;81.10
39177;BME280;24904;52.208;21.192;2023-07-02T00:08:15;99317.52;;;17.83;81.19
39177;BME280;24904;52.208;21.192;2023-07-02T00:13:18;99313.35;;;17.80;81.45
39177;BME280;24904;52.208;21.192;2023-07-02T00:18:21;99315.41;;;17.73;81.72
39177;BME280;24904;52.208;21.192;2023-07-02T00:23:24;99315.51;;;17.68;81.85
39177;BME280;24904;52.208;21.192;2023-07-02T00:28:27;99314.86;;;17.65;82.41
39177;BME280;24904;52.208;21.192;2023-07-02T00:33:31;99312.83;;;17.65;82.42
39177;BME280;24904;52.208;21.192;2023-07-02T00:38:34;99314.30;;;17.63;82.77
39177;BME280;24904;52.208;21.192;2023-07-02T00:43:37;99313.92;;;17.60;82.88
39177;BME280;24904;52.208;21.192;2023-07-02T00:48:41;99307.92;;;17.57;83.08
39177;BME280;24904;52.208;21.192;2023-07-02T00:53:47;99305.56;;;17.54;83.48
39177;BME280;24904;52.208;21.192;2023-07-02T00:58:51;99306.03;;;17.54;83.85
39177;BME280;24904;52.208;21.192;2023-07-02T01:03:57;99300.73;;;17.56;84.18
39177;BME280;24904;52.208;21.192;2023-07-02T01:09:02;99299.48;;;17.58;84.79
39177;BME280;24904;52.208;21.192;2023-07-02T01:14:09;99298.35;;;17.63;85.08
39177;BME280;24904;52.208;21.192;2023-07-02T01:19:18;99298.29;;;17.65;85.13
39177;BME280;24904;52.208;21.192;2023-07-02T01:24:21;99298.14;;;17.67;85.24
39177;BME280;24904;52.208;21.192;2023-07-02T01:29:25;99294.02;;;17.67;85.23
39177;BME280;24904;52.208;21.192;2023-07-02T01:34:28;99290.40;;;17.66;85.25
39177;BME280;24904;52.208;21.192;2023-07-02T01:39:32;99278.89;;;17.64;85.17
39177;BME280;24904;52.208;21.192;2023-07-02T01:44:35;99279.29;;;17.60;85.13
39177;BME280;24904;52.208;21.192;2023-07-02T01:49:38;99285.41;;;17.59;85.09
39177;BME280;24904;52.208;21.192;2023-07-02T01:54:41;99277.95;;;17.59;85.02
39177;BME280;24904;52.208;21.192;2023-07-02T01:59:45;99274.55;;;17.56;85.12
39177;BME280;24904;52.208;21.192;2023-07-02T02:04:48;99276.45;;;17.54;85.21
39177;BME280;24904;52.208;21.192;2023-07-02T02:09:51;99274.89;;;17.51;85.11
39177;BME280;24904;52.208;21.192;2023-07-02T02:14:55;99276.17;;;17.49;85.22
39177;BME280;24904;52.208;21.192;2023-07-02T02:19:59;99275.80;;;17.48;85.57
39177;BME280;24904;52.208;21.192;2023-07-02T02:25:02;99273.16;;;17.51;85.84
39177;BME280;24904;52.208;21.192;2023-07-02T02:30:08;99271.15;;;17.54;85.74
39177;BME280;24904;52.208;21.192;2023-07-02T02:35:11;99270.09;;;17.57;85.90
39177;BME280;24904;52.208;21.192;2023-07-02T02:40:15;99266.30;;;17.59;85.82
39177;BME280;24904;52.208;21.192;2023-07-02T02:45:18;99264.98;;;17.61;86.00
39177;BME280;24904;52.208;21.192;2023-07-02T02:50:22;99260.21;;;17.61;85.87
39177;BME280;24904;52.208;21.192;2023-07-02T02:55:25;99261.76;;;17.62;85.88
39177;BME280;24904;52.208;21.192;2023-07-02T03:00:28;99258.16;;;17.63;85.81
39177;BME280;24904;52.208;21.192;2023-07-02T03:05:31;99258.08;;;17.65;85.93
39177;BME280;24904;52.208;21.192;2023-07-02T03:10:35;99256.10;;;17.67;85.92
39177;BME280;24904;52.208;21.192;2023-07-02T03:15:38;99253.98;;;17.70;86.03
39177;BME280;24904;52.208;21.192;2023-07-02T03:20:41;99256.92;;;17.74;86.17
39177;BME280;24904;52.208;21.192;2023-07-02T03:25:44;99253.34;;;17.81;86.15
39177;BME280;24904;52.208;21.192;2023-07-02T03:30:47;99249.73;;;17.84;86.10
39177;BME280;24904;52.208;21.192;2023-07-02T03:35:50;99251.31;;;17.86;85.92
39177;BME280;24904;52.208;21.192;2023-07-02T03:40:53;99247.71;;;17.87;86.13
39177;BME280;24904;52.208;21.192;2023-07-02T03:45:58;99250.33;;;17.90;86.02
39177;BME280;24904;52.208;21.192;2023-07-02T03:51:01;99250.16;;;17.92;85.94
39177;BME280;24904;52.208;21.192;2023-07-02T03:56:05;99247.73;;;17.93;85.81
39177;BME280;24904;52.208;21.192;2023-07-02T04:01:08;99244.62;;;17.96;85.73
39177;BME280;24904;52.208;21.192;2023-07-02T04:06:11;99242.14;;;18.00;85.78
39177;BME280;24904;52.208;21.192;2023-07-02T04:11:14;99240.30;;;18.05;85.87
39177;BME280;24904;52.208;21.192;2023-07-02T04:16:17;99239.89;;;18.11;85.77
39177;BME280;24904;52.208;21.192;2023-07-02T04:21:20;99234.16;;;18.17;85.63
39177;BME280;24904;52.208;21.192;2023-07-02T04:34:33;99235.67;;;18.33;85.09
39177;BME280;24904;52.208;21.192;2023-07-02T04:39:40;99232.17;;;18.37;84.95
39177;BME280;24904;52.208;21.192;2023-07-02T04:44:45;99230.14;;;18.42;84.67
39177;BME280;24904;52.208;21.192;2023-07-02T04:49:50;99231.87;;;18.47;84.25
39177;BME280;24904;52.208;21.192;2023-07-02T04:54:55;99237.35;;;18.53;84.09
39177;BME280;24904;52.208;21.192;2023-07-02T05:00:00;99234.92;;;18.58;83.69
39177;BME280;24904;52.208;21.192;2023-07-02T05:05:07;99234.75;;;18.63;83.46
39177;BME280;24904;52.208;21.192;2023-07-02T05:10:12;99242.03;;;18.66;83.08
39177;BME280;24904;52.208;21.192;2023-07-02T05:15:18;99252.84;;;18.67;82.80
39177;BME280;24904;52.208;21.192;2023-07-02T05:20:22;99252.15;;;18.71;82.86
39177;BME280;24904;52.208;21.192;2023-07-02T05:25:27;99256.29;;;18.75;82.59
39177;BME280;24904;52.208;21.192;2023-07-02T05:30:32;99254.02;;;18.80;82.42
39177;BME280;24904;52.208;21.192;2023-07-02T05:35:38;99254.14;;;18.85;82.25
39177;BME280;24904;52.208;21.192;2023-07-02T05:40:42;99253.86;;;18.90;81.50
39177;BME280;24904;52.208;21.192;2023-07-02T05:45:49;99257.60;;;18.95;81.03
39177;BME280;24904;52.208;21.192;2023-07-02T05:50:54;99254.32;;;18.99;80.27
39177;BME280;24904;52.208;21.192;2023-07-02T05:55:59;99260.09;;;19.01;79.95
39177;BME280;24904;52.208;21.192;2023-07-02T06:01:04;99261.00;;;19.04;79.81
39177;BME280;24904;52.208;21.192;2023-07-02T06:06:10;99258.23;;;19.10;79.62
39177;BME280;24904;52.208;21.192;2023-07-02T06:11:15;99254.00;;;19.19;79.22
39177;BME280;24904;52.208;21.192;2023-07-02T06:16:20;99252.77;;;19.27;78.90
39177;BME280;24904;52.208;21.192;2023-07-02T06:21:25;99248.61;;;19.34;77.74
39177;BME280;24904;52.208;21.192;2023-07-02T06:26:33;99254.90;;;19.39;77.04
39177;BME280;24904;52.208;21.192;2023-07-02T06:31:38;99265.72;;;19.43;76.43
39177;BME280;24904;52.208;21.192;2023-07-02T06:36:44;99264.14;;;19.48;75.75
39177;BME280;24904;52.208;21.192;2023-07-02T06:41:49;99266.58;;;19.55;75.30
39177;BME280;24904;52.208;21.192;2023-07-02T06:46:54;99269.84;;;19.61;74.77
39177;BME280;24904;52.208;21.192;2023-07-02T06:51:59;99258.16;;;19.67;74.41
39177;BME280;24904;52.208;21.192;2023-07-02T06:57:05;99258.36;;;19.76;74.40
39177;BME280;24904;52.208;21.192;2023-07-02T07:02:10;99265.48;;;19.87;73.43
39177;BME280;24904;52.208;21.192;2023-07-02T07:07:15;99261.95;;;19.95;72.72
39177;BME280;24904;52.208;21.192;2023-07-02T07:12:20;99269.36;;;19.99;72.60
39177;BME280;24904;52.208;21.192;2023-07-02T07:17:25;99269.23;;;20.00;72.07
39177;BME280;24904;52.208;21.192;2023-07-02T07:22:30;99276.92;;;19.98;71.78
39177;BME280;24904;52.208;21.192;2023-07-02T07:27:35;99286.44;;;20.03;71.68
39177;BME280;24904;52.208;21.192;2023-07-02T07:32:40;99288.59;;;20.06;71.13
39177;BME280;24904;52.208;21.192;2023-07-02T07:37:45;99285.27;;;20.09;71.20
39177;BME280;24904;52.208;21.192;2023-07-02T07:42:50;99276.21;;;20.12;71.59
39177;BME280;24904;52.208;21.192;2023-07-02T07:47:56;99293.45;;;20.15;71.78
39177;BME280;24904;52.208;21.192;2023-07-02T07:53:01;99307.15;;;20.20;71.61
39177;BME280;24904;52.208;21.192;2023-07-02T07:58:06;99314.77;;;20.19;71.51
39177;BME280;24904;52.208;21.192;2023-07-02T08:03:12;99317.82;;;20.15;71.76
39177;BME280;24904;52.208;21.192;2023-07-02T08:08:17;99318.11;;;20.03;71.77
39177;BME280;24904;52.208;21.192;2023-07-02T08:13:22;99313.85;;;19.97;72.41
39177;BME280;24904;52.208;21.192;2023-07-02T08:18:27;99323.98;;;19.91;72.48
39177;BME280;24904;52.208;21.192;2023-07-02T08:23:32;99329.23;;;19.86;72.68
39177;BME280;24904;52.208;21.192;2023-07-02T08:28:38;99328.23;;;19.79;73.19
39177;BME280;24904;52.208;21.192;2023-07-02T08:33:43;99330.55;;;19.75;73.49
39177;BME280;24904;52.208;21.192;2023-07-02T08:38:48;99339.97;;;19.77;73.84
39177;BME280;24904;52.208;21.192;2023-07-02T08:43:57;99337.64;;;19.86;74.48
39177;BME280;24904;52.208;21.192;2023-07-02T08:49:03;99340.43;;;19.99;74.18
39177;BME280;24904;52.208;21.192;2023-07-02T08:54:08;99339.60;;;20.03;73.94
39177;BME280;24904;52.208;21.192;2023-07-02T08:59:13;99344.36;;;20.04;73.88
39177;BME280;24904;52.208;21.192;2023-07-02T09:04:20;99345.08;;;20.02;74.01
39177;BME280;24904;52.208;21.192;2023-07-02T09:09:26;99345.25;;;19.98;74.18
39177;BME280;24904;52.208;21.192;2023-07-02T09:14:32;99347.61;;;20.04;74.36
39177;BME280;24904;52.208;21.192;2023-07-02T09:19:48;99351.16;;;20.16;74.24
39177;BME280;24904;52.208;21.192;2023-07-02T09:24:54;99351.79;;;20.23;73.83
39177;BME280;24904;52.208;21.192;2023-07-02T09:30:07;99357.01;;;20.20;73.75
39177;BME280;24904;52.208;21.192;2023-07-02T09:35:13;99364.36;;;20.14;73.98
39177;BME280;24904;52.208;21.192;2023-07-02T09:40:18;99371.33;;;20.09;74.06
39177;BME280;24904;52.208;21.192;2023-07-02T09:45:24;99373.47;;;20.03;74.19
39177;BME280;24904;52.208;21.192;2023-07-02T09:50:30;99374.89;;;20.03;74.54
39177;BME280;24904;52.208;21.192;2023-07-02T09:55:36;99374.85;;;20.07;74.61
39177;BME280;24904;52.208;21.192;2023-07-02T10:00:42;99378.27;;;20.08;74.62
39177;BME280;24904;52.208;21.192;2023-07-02T10:05:47;99365.41;;;20.10;74.67
39177;BME280;24904;52.208;21.192;2023-07-02T10:10:52;99359.12;;;20.23;74.93
39177;BME280;24904;52.208;21.192;2023-07-02T10:16:03;99348.94;;;20.50;74.30
39177;BME280;24904;52.208;21.192;2023-07-02T10:21:18;99340.52;;;20.76;73.74
39177;BME280;24904;52.208;21.192;2023-07-02T10:26:23;99336.50;;;20.99;72.33
39177;BME280;24904;52.208;21.192;2023-07-02T10:31:30;99338.02;;;21.12;71.15
39177;BME280;24904;52.208;21.192;2023-07-02T10:36:35;99344.67;;;21.17;70.82
39177;BME280;24904;52.208;21.192;2023-07-02T10:41:40;99341.69;;;21.20;70.71
39177;BME280;24904;52.208;21.192;2023-07-02T10:46:48;99334.77;;;21.25;70.10
39177;BME280;24904;52.208;21.192;2023-07-02T10:52:05;99333.37;;;21.42;69.92
39177;BME280;24904;52.208;21.192;2023-07-02T10:57:13;99334.52;;;21.58;69.61
39177;BME280;24904;52.208;21.192;2023-07-02T11:02:18;99328.35;;;21.67;69.77
39177;BME280;24904;52.208;21.192;2023-07-02T11:07:25;99325.33;;;21.70;69.51
39177;BME280;24904;52.208;21.192;2023-07-02T11:12:31;99323.55;;;21.61;69.63
39177;BME280;24904;52.208;21.192;2023-07-02T11:17:36;99330.81;;;21.48;69.70
39177;BME280;24904;52.208;21.192;2023-07-02T11:22:41;99330.45;;;21.32;69.79
39177;BME280;24904;52.208;21.192;2023-07-02T11:27:46;99331.52;;;21.16;69.86
39177;BME280;24904;52.208;21.192;2023-07-02T11:32:54;99335.71;;;21.02;70.15
39177;BME280;24904;52.208;21.192;2023-07-02T11:37:59;99348.59;;;20.89;70.78
39177;BME280;24904;52.208;21.192;2023-07-02T11:43:04;99367.60;;;20.68;71.92
39177;BME280;24904;52.208;21.192;2023-07-02T11:48:09;99379.64;;;20.36;73.48
39177;BME280;24904;52.208;21.192;2023-07-02T11:53:14;99377.45;;;20.30;75.82
39177;BME280;24904;52.208;21.192;2023-07-02T11:58:19;99372.74;;;20.30;76.62
39177;BME280;24904;52.208;21.192;2023-07-02T12:03:24;99381.39;;;20.25;76.59
39177;BME280;24904;52.208;21.192;2023-07-02T12:08:29;99375.36;;;20.23;76.96
39177;BME280;24904;52.208;21.192;2023-07-02T12:13:35;99371.02;;;20.25;77.14
39177;BME280;24904;52.208;21.192;2023-07-02T12:18:40;99367.40;;;20.39;76.84
39177;BME280;24904;52.208;21.192;2023-07-02T12:23:45;99359.52;;;20.69;76.76
39177;BME280;24904;52.208;21.192;2023-07-02T12:28:50;99356.27;;;20.99;74.39
39177;BME280;24904;52.208;21.192;2023-07-02T12:33:55;99348.00;;;21.22;72.83
39177;BME280;24904;52.208;21.192;2023-07-02T12:39:00;99356.23;;;21.49;72.09
39177;BME280;24904;52.208;21.192;2023-07-02T12:44:06;99354.83;;;21.70;71.14
39177;BME280;24904;52.208;21.192;2023-07-02T12:49:11;99357.42;;;21.84;70.20
39177;BME280;24904;52.208;21.192;2023-07-02T12:54:16;99357.30;;;21.91;67.97
39177;BME280;24904;52.208;21.192;2023-07-02T12:59:21;99358.98;;;21.94;65.87
39177;BME280;24904;52.208;21.192;2023-07-02T13:04:26;99356.65;;;22.02;65.41
39177;BME280;24904;52.208;21.192;2023-07-02T13:09:31;99360.23;;;22.08;64.63
39177;BME280;24904;52.208;21.192;2023-07-02T13:14:36;99362.84;;;22.16;62.61
39177;BME280;24904;52.208;21.192;2023-07-02T13:19:41;99365.70;;;22.30;60.30
39177;BME280;24904;52.208;21.192;2023-07-02T13:24:46;99366.98;;;22.34;59.09
39177;BME280;24904;52.208;21.192;2023-07-02T13:29:51;99376.55;;;22.37;57.62
39177;BME280;24904;52.208;21.192;2023-07-02T13:34:56;99376.60;;;22.32;56.94
39177;BME280;24904;52.208;21.192;2023-07-02T13:40:01;99381.89;;;22.32;55.82
39177;BME280;24904;52.208;21.192;2023-07-02T13:45:12;99384.96;;;22.33;55.09
39177;BME280;24904;52.208;21.192;2023-07-02T13:50:17;99388.51;;;22.32;55.40
39177;BME280;24904;52.208;21.192;2023-07-02T13:55:22;99394.73;;;22.30;54.17
39177;BME280;24904;52.208;21.192;2023-07-02T14:00:31;99394.61;;;22.26;53.97
39177;BME280;24904;52.208;21.192;2023-07-02T14:05:36;99394.02;;;22.22;54.65
39177;BME280;24904;52.208;21.192;2023-07-02T14:10:41;99392.57;;;22.22;55.17
39177;BME280;24904;52.208;21.192;2023-07-02T14:15:46;99402.95;;;22.19;54.46
39177;BME280;24904;52.208;21.192;2023-07-02T14:20:51;99414.20;;;22.17;53.42
39177;BME280;24904;52.208;21.192;2023-07-02T14:25:56;99417.93;;;22.15;53.17
39177;BME280;24904;52.208;21.192;2023-07-02T14:31:02;99414.02;;;22.15;52.25
39177;BME280;24904;52.208;21.192;2023-07-02T14:36:07;99418.95;;;22.12;50.75
39177;BME280;24904;52.208;21.192;2023-07-02T14:41:12;99419.16;;;22.13;50.90
39177;BME280;24904;52.208;21.192;2023-07-02T14:46:17;99418.83;;;22.11;50.30
39177;BME280;24904;52.208;21.192;2023-07-02T14:51:22;99418.11;;;22.11;50.68
39177;BME280;24904;52.208;21.192;2023-07-02T14:56:27;99423.11;;;22.09;50.16
39177;BME280;24904;52.208;21.192;2023-07-02T15:01:32;99424.73;;;22.08;49.18
39177;BME280;24904;52.208;21.192;2023-07-02T15:06:37;99424.31;;;22.07;48.76
39177;BME280;24904;52.208;21.192;2023-07-02T15:11:42;99424.56;;;22.07;49.60
39177;BME280;24904;52.208;21.192;2023-07-02T15:20:51;99425.80;;;22.14;49.77
39177;BME280;24904;52.208;21.192;2023-07-02T15:25:57;99425.98;;;22.18;49.74
39177;BME280;24904;52.208;21.192;2023-07-02T15:31:05;99426.90;;;22.24;49.98
39177;BME280;24904;52.208;21.192;2023-07-02T15:36:11;99428.48;;;22.26;49.87
39177;BME280;24904;52.208;21.192;2023-07-02T15:41:18;99423.91;;;22.31;49.68
39177;BME280;24904;52.208;21.192;2023-07-02T15:46:24;99423.08;;;22.37;49.25
39177;BME280;24904;52.208;21.192;2023-07-02T15:51:29;99423.30;;;22.44;49.45
39177;BME280;24904;52.208;21.192;2023-07-02T15:56:39;99425.80;;;22.46;49.19
39177;BME280;24904;52.208;21.192;2023-07-02T16:01:44;99421.48;;;22.46;48.82
39177;BME280;24904;52.208;21.192;2023-07-02T16:06:50;99425.21;;;22.45;48.80
39177;BME280;24904;52.208;21.192;2023-07-02T16:11:55;99429.34;;;22.43;48.29
39177;BME280;24904;52.208;21.192;2023-07-02T16:17:00;99432.49;;;22.38;48.40
39177;BME280;24904;52.208;21.192;2023-07-02T16:22:06;99432.83;;;22.34;48.41
39177;BME280;24904;52.208;21.192;2023-07-02T16:27:11;99428.55;;;22.34;48.28
39177;BME280;24904;52.208;21.192;2023-07-02T16:32:17;99435.23;;;22.37;47.79
39177;BME280;24904;52.208;21.192;2023-07-02T16:37:27;99437.03;;;22.38;47.71
39177;BME280;24904;52.208;21.192;2023-07-02T16:42:32;99438.17;;;22.34;47.83
39177;BME280;24904;52.208;21.192;2023-07-02T16:47:37;99438.23;;;22.29;47.81
39177;BME280;24904;52.208;21.192;2023-07-02T16:52:42;99438.89;;;22.26;47.54
39177;BME280;24904;52.208;21.192;2023-07-02T16:57:47;99444.27;;;22.23;47.97
39177;BME280;24904;52.208;21.192;2023-07-02T17:02:52;99452.14;;;22.17;48.24
39177;BME280;24904;52.208;21.192;2023-07-02T17:07:57;99450.67;;;22.09;48.04
39177;BME280;24904;52.208;21.192;2023-07-02T17:13:02;99457.66;;;22.01;48.52
39177;BME280;24904;52.208;21.192;2023-07-02T17:18:07;99458.52;;;21.97;49.04
39177;BME280;24904;52.208;21.192;2023-07-02T17:23:12;99466.95;;;21.94;49.22
39177;BME280;24904;52.208;21.192;2023-07-02T17:28:17;99472.17;;;21.90;49.11
39177;BME280;24904;52.208;21.192;2023-07-02T17:33:22;99481.41;;;21.85;49.38
39177;BME280;24904;52.208;21.192;2023-07-02T17:38:27;99485.08;;;21.77;50.28
39177;BME280;24904;52.208;21.192;2023-07-02T17:43:32;99486.33;;;21.71;49.95
39177;BME280;24904;52.208;21.192;2023-07-02T17:48:37;99489.03;;;21.68;50.10
39177;BME280;24904;52.208;21.192;2023-07-02T17:53:42;99495.03;;;21.66;50.10
39177;BME280;24904;52.208;21.192;2023-07-02T17:58:47;99500.43;;;21.64;49.90
39177;BME280;24904;52.208;21.192;2023-07-02T18:03:52;99503.80;;;21.62;49.89
39177;BME280;24904;52.208;21.192;2023-07-02T18:08:57;99508.81;;;21.61;50.16
39177;BME280;24904;52.208;21.192;2023-07-02T18:14:03;99515.42;;;21.60;50.32
39177;BME280;24904;52.208;21.192;2023-07-02T18:19:08;99517.20;;;21.58;50.30
39177;BME280;24904;52.208;21.192;2023-07-02T18:24:13;99526.85;;;21.55;50.20
39177;BME280;24904;52.208;21.192;2023-07-02T18:29:18;99531.16;;;21.53;50.35
39177;BME280;24904;52.208;21.192;2023-07-02T18:34:23;99536.52;;;21.48;50.58
39177;BME280;24904;52.208;21.192;2023-07-02T18:39:29;99537.71;;;21.41;50.69
39177;BME280;24904;52.208;21.192;2023-07-02T18:44:39;99551.88;;;21.35;50.10
39177;BME280;24904;52.208;21.192;2023-07-02T18:49:44;99557.95;;;21.27;49.57
39177;BME280;24904;52.208;21.192;2023-07-02T18:54:49;99559.04;;;21.22;48.87
39177;BME280;24904;52.208;21.192;2023-07-02T18:59:54;99573.48;;;21.17;48.57
39177;BME280;24904;52.208;21.192;2023-07-02T19:05:00;99584.43;;;21.11;48.20
39177;BME280;24904;52.208;21.192;2023-07-02T19:10:06;99594.55;;;21.08;47.91
39177;BME280;24904;52.208;21.192;2023-07-02T19:15:11;99600.11;;;21.03;47.81
39177;BME280;24904;52.208;21.192;2023-07-02T19:20:17;99615.60;;;20.96;47.88
39177;BME280;24904;52.208;21.192;2023-07-02T19:25:23;99618.12;;;20.90;47.97
39177;BME280;24904;52.208;21.192;2023-07-02T19:30:28;99631.58;;;20.79;48.05
39177;BME280;24904;52.208;21.192;2023-07-02T19:35:33;99642.77;;;20.71;48.26
39177;BME280;24904;52.208;21.192;2023-07-02T19:40:38;99652.34;;;20.63;48.32
39177;BME280;24904;52.208;21.192;2023-07-02T19:45:43;99662.72;;;20.55;48.68
39177;BME280;24904;52.208;21.192;2023-07-02T19:50:52;99666.66;;;20.47;48.54
39177;BME280;24904;52.208;21.192;2023-07-02T19:56:05;99673.34;;;20.36;48.17
39177;BME280;24904;52.208;21.192;2023-07-02T20:01:12;99678.34;;;20.27;48.33
39177;BME280;24904;52.208;21.192;2023-07-02T20:06:17;99684.77;;;20.19;48.17
39177;BME280;24904;52.208;21.192;2023-07-02T20:11:22;99690.13;;;20.10;48.32
39177;BME280;24904;52.208;21.192;2023-07-02T20:16:28;99698.48;;;20.02;48.25
39177;BME280;24904;52.208;21.192;2023-07-02T20:21:33;99706.59;;;19.92;48.30
39177;BME280;24904;52.208;21.192;2023-07-02T20:26:38;99707.48;;;19.85;48.32
39177;BME280;24904;52.208;21.192;2023-07-02T20:31:43;99713.30;;;19.79;48.53
39177;BME280;24904;52.208;21.192;2023-07-02T20:36:50;99719.02;;;19.73;48.83
39177;BME280;24904;52.208;21.192;2023-07-02T20:41:57;99719.67;;;19.66;49.17
39177;BME280;24904;52.208;21.192;2023-07-02T20:47:02;99727.11;;;19.55;49.20
39177;BME280;24904;52.208;21.192;2023-07-02T20:52:09;99730.25;;;19.43;49.59
39177;BME280;24904;52.208;21.192;2023-07-02T20:57:14;99741.56;;;19.40;49.59
39177;BME280;24904;52.208;21.192;2023-07-02T21:02:20;99747.73;;;19.34;49.77
39177;BME280;24904;52.208;21.192;2023-07-02T21:07:27;99751.17;;;19.24;49.90
39177;BME280;24904;52.208;21.192;2023-07-02T21:20:48;99769.05;;;19.08;50.43
39177;BME280;24904;52.208;21.192;2023-07-02T21:26:00;99772.61;;;18.99;50.55
39177;BME280;24904;52.208;21.192;2023-07-02T21:31:06;99777.17;;;18.93;51.07
39177;BME280;24904;52.208;21.192;2023-07-02T21:36:11;99778.36;;;18.91;51.22
39177;BME280;24904;52.208;21.192;2023-07-02T21:41:18;99781.64;;;18.83;51.62
39177;BME280;24904;52.208;21.192;2023-07-02T21:46:23;99786.84;;;18.66;52.07
39177;BME280;24904;52.208;21.192;2023-07-02T21:51:29;99787.77;;;18.56;52.44
39177;BME280;24904;52.208;21.192;2023-07-02T21:56:34;99790.93;;;18.52;52.84
39177;BME280;24904;52.208;21.192;2023-07-02T22:01:39;99795.48;;;18.49;52.93
39177;BME280;24904;52.208;21.192;2023-07-02T22:06:44;99798.98;;;18.43;53.06
39177;BME280;24904;52.208;21.192;2023-07-02T22:11:49;99801.11;;;18.36;53.26
39177;BME280;24904;52.208;21.192;2023-07-02T22:16:54;99800.70;;;18.31;53.33
39177;BME280;24904;52.208;21.192;2023-07-02T22:22:01;99801.59;;;18.27;53.70
39177;BME280;24904;52.208;21.192;2023-07-02T22:27:07;99799.21;;;18.19;53.67
39177;BME280;24904;52.208;21.192;2023-07-02T22:32:12;99804.31;;;18.16;53.86
39177;BME280;24904;52.208;21.192;2023-07-02T22:37:17;99802.83;;;18.12;54.01
39177;BME280;24904;52.208;21.192;2023-07-02T22:42:22;99803.51;;;18.05;54.55
39177;BME280;24904;52.208;21.192;2023-07-02T22:47:27;99805.70;;;17.89;54.96
39177;BME280;24904;52.208;21.192;2023-07-02T22:52:33;99812.25;;;17.70;55.78
39177;BME280;24904;52.208;21.192;2023-07-02T22:57:41;99810.77;;;17.56;56.21
39177;BME280;24904;52.208;21.192;2023-07-02T23:02:47;99812.33;;;17.42;56.74
39177;BME280;24904;52.208;21.192;2023-07-02T23:07:52;99810.75;;;17.30;57.73
39177;BME280;24904;52.208;21.192;2023-07-02T23:12:57;99815.70;;;17.12;58.37
39177;BME280;24904;52.208;21.192;2023-07-02T23:18:02;99818.33;;;16.95;58.96
39177;BME280;24904;52.208;21.192;2023-07-02T23:23:08;99817.08;;;16.77;59.51
39177;BME280;24904;52.208;21.192;2023-07-02T23:28:13;99816.52;;;16.59;60.08
39177;BME280;24904;52.208;21.192;2023-07-02T23:33:18;99820.98;;;16.44;60.82
39177;BME280;24904;52.208;21.192;2023-07-02T23:38:25;99826.88;;;16.22;61.31
39177;BME280;24904;52.208;21.192;2023-07-02T23:43:30;99831.61;;;16.04;61.80
39177;BME280;24904;52.208;21.192;2023-07-02T23:48:35;99836.52;;;15.88;62.36
39177;BME280;24904;52.208;21.192;2023-07-02T23:53:40;99834.67;;;15.72;62.76
39177;BME280;24904;52.208;21.192;2023-07-02T23:58:45;99836.77;;;15.55;63.06
